createdAt,value
2023-04-21T00:00:30.690Z,90.80
2023-04-21T00:02:58.801Z,87.20
2023-04-21T00:05:27.291Z,88.80
2023-04-21T00:07:55.258Z,88.90
2023-04-21T00:10:23.196Z,91.00
2023-04-21T00:12:51.042Z,91.80
2023-04-21T00:15:20.278Z,92.30
2023-04-21T00:17:48.169Z,92.60
2023-04-21T00:20:16.103Z,91.20
2023-04-21T00:22:44.003Z,91.40
2023-04-21T00:25:11.847Z,91.60
2023-04-21T00:27:39.659Z,90.90
2023-04-21T00:30:08.112Z,91.70
2023-04-21T00:32:37.422Z,93.70
2023-04-21T00:35:05.574Z,93.70
2023-04-21T00:37:33.449Z,94.30
2023-04-21T00:40:01.290Z,94.60
2023-04-21T00:42:29.217Z,94.90
2023-04-21T00:44:57.162Z,96.80
2023-04-21T00:47:25.434Z,96.70
2023-04-21T00:49:54.970Z,96.90
2023-04-21T00:52:22.896Z,94.80
2023-04-21T00:54:50.943Z,96.90
2023-04-21T00:57:18.755Z,95.90
2023-04-21T00:59:46.671Z,95.70
2023-04-21T01:02:15.524Z,94.70
2023-04-21T01:04:43.832Z,94.70
2023-04-21T01:07:13.151Z,96.70
2023-04-21T01:09:41.473Z,94.60
2023-04-21T01:12:10.580Z,94.90
2023-04-21T01:14:39.514Z,95.40
2023-04-21T01:17:07.934Z,96.30
2023-04-21T01:19:39.388Z,97.70
2023-04-21T01:22:11.167Z,99.90
2023-04-21T01:24:39.697Z,99.90
2023-04-21T01:27:09.987Z,99.90
2023-04-21T01:29:38.046Z,99.90
2023-04-21T01:32:07.362Z,99.90
2023-04-21T01:34:35.250Z,98.80
2023-04-21T01:37:03.580Z,98.20
2023-04-21T01:39:32.843Z,97.80
2023-04-21T01:42:00.798Z,98.90
2023-04-21T01:44:28.738Z,98.50
2023-04-21T01:46:56.638Z,98.50
2023-04-21T01:49:24.534Z,99.90
2023-04-21T01:51:52.420Z,99.90
2023-04-21T01:54:20.289Z,99.90
2023-04-21T01:56:49.535Z,99.90
2023-04-21T01:59:17.647Z,99.90
2023-04-21T02:01:45.708Z,99.90
2023-04-21T02:04:13.783Z,99.90
2023-04-21T02:06:41.770Z,99.90
2023-04-21T02:09:09.640Z,99.90
2023-04-21T02:11:37.572Z,99.90
2023-04-21T02:14:06.781Z,99.90
2023-04-21T02:16:34.629Z,99.90
2023-04-21T02:19:03.078Z,99.90
2023-04-21T02:21:32.369Z,99.90
2023-04-21T02:24:00.278Z,99.90
2023-04-21T02:26:28.179Z,99.90
2023-04-21T02:28:56.067Z,99.90
2023-04-21T02:31:25.380Z,99.90
2023-04-21T02:33:54.587Z,99.90
2023-04-21T02:36:22.492Z,99.90
2023-04-21T02:38:51.125Z,99.90
2023-04-21T02:41:19.000Z,99.90
2023-04-21T02:43:46.863Z,99.90
2023-04-21T02:46:14.738Z,99.90
2023-04-21T02:48:43.956Z,99.90
2023-04-21T02:51:15.442Z,99.90
2023-04-21T02:53:43.612Z,99.90
2023-04-21T02:56:11.479Z,99.90
2023-04-21T02:58:39.640Z,99.90
2023-04-21T03:01:07.515Z,99.90
2023-04-21T03:03:36.249Z,99.90
2023-04-21T03:06:06.442Z,99.90
2023-04-21T03:08:34.276Z,99.90
2023-04-21T03:11:02.115Z,99.90
2023-04-21T03:13:29.994Z,99.90
2023-04-21T03:15:58.069Z,99.90
2023-04-21T03:18:25.929Z,99.90
2023-04-21T03:20:54.089Z,99.90
2023-04-21T03:23:23.323Z,99.90
2023-04-21T03:25:51.168Z,99.90
2023-04-21T03:28:19.420Z,99.90
2023-04-21T03:30:47.275Z,99.90
2023-04-21T03:33:15.217Z,99.90
2023-04-21T03:35:43.117Z,99.90
2023-04-21T03:38:10.940Z,99.90
2023-04-21T03:40:40.227Z,99.90
2023-04-21T03:43:08.061Z,99.90
2023-04-21T03:45:36.163Z,99.90
2023-04-21T03:48:04.614Z,99.90
2023-04-21T03:50:32.591Z,99.90
2023-04-21T03:53:00.478Z,99.90
2023-04-21T03:55:28.354Z,99.90
2023-04-21T03:57:57.687Z,99.90
2023-04-21T04:00:25.559Z,99.90
2023-04-21T04:02:53.486Z,99.90
2023-04-21T04:05:21.605Z,99.90
2023-04-21T04:07:49.594Z,99.90
2023-04-21T04:10:17.488Z,99.90
2023-04-21T04:12:45.409Z,99.90
2023-04-21T04:15:15.088Z,99.90
2023-04-21T04:17:43.093Z,99.90
2023-04-21T04:20:11.249Z,99.90
2023-04-21T04:22:39.224Z,99.90
2023-04-21T04:25:07.664Z,99.90
2023-04-21T04:27:35.567Z,99.90
2023-04-21T04:30:03.453Z,99.90
2023-04-21T04:32:34.056Z,99.90
2023-04-21T04:35:02.520Z,99.90
2023-04-21T04:37:31.771Z,99.90
2023-04-21T04:39:59.628Z,99.90
2023-04-21T04:42:27.465Z,99.90
2023-04-21T04:44:56.010Z,99.90
2023-04-21T04:47:23.893Z,99.90
2023-04-21T04:49:53.236Z,99.90
2023-04-21T04:52:21.152Z,99.90
2023-04-21T04:54:48.990Z,99.90
2023-04-21T04:57:16.897Z,99.90
2023-04-21T04:59:44.821Z,99.90
2023-04-21T05:02:13.069Z,99.90
2023-04-21T05:04:41.232Z,99.90
2023-04-21T05:07:10.613Z,99.90
2023-04-21T05:09:38.504Z,99.90
2023-04-21T05:12:06.836Z,99.90
2023-04-21T05:14:34.648Z,99.90
2023-04-21T05:17:02.596Z,99.90
2023-04-21T05:19:30.557Z,99.90
2023-04-21T05:22:00.751Z,99.90
2023-04-21T05:24:30.016Z,99.70
2023-04-21T05:26:57.957Z,99.50
2023-04-21T05:29:25.909Z,98.40
2023-04-21T05:31:53.904Z,96.80
2023-04-21T05:34:22.079Z,95.90
2023-04-21T05:36:50.082Z,95.80
2023-04-21T05:39:18.789Z,94.90
2023-04-21T05:41:48.008Z,93.60
2023-04-21T05:44:17.554Z,92.70
2023-04-21T05:46:45.816Z,91.60
2023-04-21T05:49:13.663Z,90.30
2023-04-21T05:51:41.504Z,90.70
2023-04-21T05:54:09.365Z,86.10
2023-04-21T05:56:37.248Z,83.30
2023-04-21T05:59:07.123Z,81.30
2023-04-21T06:01:35.042Z,79.50
2023-04-21T06:04:03.216Z,70.40
2023-04-21T06:06:31.792Z,62.10
2023-04-21T06:08:59.664Z,60.70
2023-04-21T06:11:27.565Z,61.60
2023-04-21T06:13:58.417Z,58.50
2023-04-21T06:16:27.912Z,60.40
2023-04-21T06:18:55.916Z,54.60
2023-04-21T06:21:23.828Z,49.40
2023-04-21T06:23:51.684Z,47.40
2023-04-21T06:26:19.613Z,37.60
2023-04-21T06:28:47.629Z,34.50
2023-04-21T06:31:16.068Z,34.40
2023-04-21T06:33:45.322Z,24.50
2023-04-21T06:36:13.240Z,30.00
2023-04-21T06:38:43.137Z,20.50
2023-04-21T06:41:11.867Z,22.60
2023-04-21T06:43:39.759Z,16.60
2023-04-21T06:46:07.639Z,12.20
2023-04-21T06:48:35.693Z,13.40
2023-04-21T06:51:06.580Z,10.20
2023-04-21T06:53:34.423Z,10.60
2023-04-21T06:56:04.540Z,6.30
2023-04-21T06:58:32.485Z,1.60
2023-04-21T07:01:00.502Z,1.00
2023-04-21T07:03:28.463Z,1.00
2023-04-21T07:05:57.470Z,9.10
2023-04-21T07:08:27.415Z,1.00
2023-04-21T07:10:55.329Z,1.00
2023-04-21T07:13:23.245Z,1.00
2023-04-21T07:15:52.661Z,1.00
2023-04-21T07:18:21.931Z,1.00
2023-04-21T07:20:50.761Z,1.00
2023-04-21T07:23:20.657Z,1.00
2023-04-21T07:25:54.656Z,10.00
2023-04-21T07:28:42.486Z,1.00
2023-04-21T07:31:30.347Z,1.00
2023-04-21T07:34:18.188Z,1.00
2023-04-21T07:37:05.989Z,1.00
2023-04-21T07:39:53.886Z,1.00
2023-04-21T07:42:43.126Z,3.10
2023-04-21T07:45:31.140Z,6.60
2023-04-21T07:48:18.996Z,12.40
2023-04-21T07:51:06.949Z,13.40
2023-04-21T07:53:54.876Z,16.30
2023-04-21T07:56:42.686Z,23.50
2023-04-21T07:59:31.851Z,25.30
2023-04-21T08:02:19.832Z,26.00
2023-04-21T08:05:08.126Z,26.00
2023-04-21T08:07:56.109Z,30.20
2023-04-21T08:13:32.009Z,38.20
2023-04-21T08:16:21.300Z,37.10
2023-04-21T08:19:09.535Z,36.60
2023-04-21T08:21:57.476Z,43.60
2023-04-21T08:24:45.264Z,46.20
2023-04-21T08:27:33.068Z,41.50
2023-04-21T08:30:21.156Z,43.30
2023-04-21T08:33:13.759Z,44.60
2023-04-21T08:36:07.850Z,43.40
2023-04-21T08:39:03.110Z,46.40
2023-04-21T08:41:51.816Z,46.30
2023-04-21T08:44:41.528Z,43.80
2023-04-21T08:47:29.949Z,45.20
2023-04-21T08:50:19.165Z,45.10
2023-04-21T08:53:07.196Z,43.70
2023-04-21T08:56:10.141Z,48.20
2023-04-21T08:58:58.922Z,49.60
2023-04-21T09:02:05.621Z,45.50
2023-04-21T09:04:54.919Z,43.50
2023-04-21T09:07:44.327Z,44.10
2023-04-21T09:10:32.127Z,44.40
2023-04-21T09:13:20.804Z,44.60
2023-04-21T09:16:17.408Z,48.30
2023-04-21T09:19:14.525Z,47.20
2023-04-21T09:22:02.349Z,47.70
2023-04-21T09:24:58.266Z,45.00
2023-04-21T09:27:46.599Z,44.20
2023-04-21T09:30:36.061Z,44.40
2023-04-21T09:33:30.649Z,44.20
2023-04-21T09:36:21.239Z,44.20
2023-04-21T09:42:02.289Z,45.20
2023-04-21T09:47:56.728Z,43.50
2023-04-21T09:53:35.700Z,45.20
2023-04-21T09:56:25.580Z,41.50
2023-04-21T09:59:15.714Z,41.60
2023-04-21T10:02:06.513Z,42.80
2023-04-21T10:04:54.659Z,39.20
2023-04-21T10:07:42.628Z,40.00
2023-04-21T10:10:31.835Z,40.00
2023-04-21T10:13:19.843Z,39.00
2023-04-21T10:16:08.689Z,41.60
2023-04-21T10:18:57.887Z,42.60
2023-04-21T10:21:45.700Z,38.80
2023-04-21T10:24:38.194Z,42.00
2023-04-21T10:27:32.729Z,38.60
2023-04-21T10:30:21.155Z,38.50
2023-04-21T10:33:08.983Z,39.60
2023-04-21T10:36:03.167Z,38.90
2023-04-21T10:38:56.414Z,38.60
2023-04-21T10:41:46.247Z,41.10
2023-04-21T10:44:34.044Z,42.70
2023-04-21T10:47:28.474Z,44.20
2023-04-21T10:50:17.681Z,40.00
2023-04-21T10:53:11.053Z,38.20
2023-04-21T10:55:58.944Z,37.60
2023-04-21T10:58:47.086Z,39.80
2023-04-21T11:01:35.015Z,40.80
2023-04-21T11:04:23.960Z,38.40
2023-04-21T11:07:12.890Z,39.30
2023-04-21T11:10:02.923Z,40.50
2023-04-21T11:12:50.717Z,37.30
2023-04-21T11:15:38.545Z,34.30
2023-04-21T11:18:39.753Z,33.90
2023-04-21T11:21:30.385Z,35.00
2023-04-21T11:24:18.439Z,34.10
2023-04-21T11:27:12.219Z,35.10
2023-04-21T11:30:00.044Z,35.60
2023-04-21T11:32:48.293Z,35.30
2023-04-21T11:35:36.485Z,34.80
2023-04-21T11:38:25.433Z,35.00
2023-04-21T11:41:13.242Z,35.20
2023-04-21T11:44:02.417Z,34.00
2023-04-21T11:46:50.325Z,31.60
2023-04-21T11:49:45.096Z,32.20
2023-04-21T11:52:33.642Z,28.20
2023-04-21T11:55:21.529Z,32.80
2023-04-21T11:58:09.372Z,32.50
2023-04-21T12:00:58.622Z,31.40
2023-04-21T12:03:52.121Z,32.10
2023-04-21T12:06:40.432Z,33.60
2023-04-21T12:09:28.748Z,32.30
2023-04-21T12:12:16.551Z,31.00
2023-04-21T12:15:04.991Z,30.70
2023-04-21T12:17:55.001Z,33.30
2023-04-21T12:20:49.746Z,32.00
2023-04-21T12:23:39.117Z,31.40
2023-04-21T12:26:27.292Z,30.20
2023-04-21T12:29:15.137Z,33.20
2023-04-21T12:32:03.295Z,32.50
2023-04-21T12:34:52.672Z,31.80
2023-04-21T12:37:40.538Z,37.90
2023-04-21T12:40:28.505Z,37.70
2023-04-21T12:43:16.309Z,37.60
2023-04-21T12:46:04.185Z,37.50
2023-04-21T12:48:52.558Z,36.40
2023-04-21T12:51:41.679Z,36.10
2023-04-21T12:54:29.542Z,36.30
2023-04-21T12:57:17.644Z,39.20
2023-04-21T13:00:08.523Z,39.10
2023-04-21T13:02:56.534Z,36.30
2023-04-21T13:05:24.458Z,41.00
2023-04-21T13:07:54.158Z,41.30
2023-04-21T13:10:22.078Z,39.70
2023-04-21T13:12:49.998Z,43.20
2023-04-21T13:15:18.017Z,40.80
2023-04-21T13:17:45.826Z,44.50
2023-04-21T13:20:13.805Z,42.60
2023-04-21T13:22:41.829Z,44.70
2023-04-21T13:25:11.345Z,45.00
2023-04-21T13:27:40.081Z,45.10
2023-04-21T13:30:08.901Z,45.20
2023-04-21T13:32:36.829Z,43.90
2023-04-21T13:35:08.648Z,45.40
2023-04-21T13:37:36.772Z,45.70
2023-04-21T13:40:05.999Z,45.40
2023-04-21T13:42:35.370Z,44.80
2023-04-21T13:45:03.654Z,44.10
2023-04-21T13:47:32.371Z,43.70
2023-04-21T13:50:00.765Z,43.10
2023-04-21T13:52:28.652Z,44.30
2023-04-21T13:54:56.534Z,45.10
2023-04-21T13:57:25.558Z,42.70
2023-04-21T13:59:55.270Z,42.60
2023-04-21T14:02:24.810Z,40.20
2023-04-21T14:04:53.567Z,41.60
2023-04-21T14:07:22.649Z,42.20
2023-04-21T14:09:52.080Z,43.80
2023-04-21T14:12:20.059Z,41.60
2023-04-21T14:14:48.253Z,41.00
2023-04-21T14:17:17.699Z,42.20
2023-04-21T14:19:45.660Z,41.50
2023-04-21T14:22:13.564Z,41.60
2023-04-21T14:24:41.640Z,42.30
2023-04-21T14:27:09.549Z,42.50
2023-04-21T14:29:37.514Z,42.10
2023-04-21T14:32:05.796Z,42.50
2023-04-21T14:34:35.277Z,43.60
2023-04-21T14:37:03.144Z,41.70
2023-04-21T14:39:32.613Z,43.40
2023-04-21T14:42:01.791Z,42.00
2023-04-21T14:44:29.798Z,43.60
2023-04-21T14:47:09.081Z,43.00
2023-04-21T14:49:40.087Z,42.80
2023-04-21T14:52:08.038Z,43.80
2023-04-21T14:54:36.027Z,42.90
2023-04-21T14:57:18.824Z,42.30
2023-04-21T14:59:47.537Z,43.80
2023-04-21T15:02:15.595Z,45.20
2023-04-21T15:04:45.148Z,44.70
2023-04-21T15:07:13.362Z,43.90
2023-04-21T15:09:43.057Z,43.20
2023-04-21T15:12:12.725Z,44.00
2023-04-21T15:14:40.745Z,45.00
2023-04-21T15:17:08.713Z,45.30
2023-04-21T15:19:36.742Z,46.10
2023-04-21T15:22:06.301Z,44.90
2023-04-21T15:24:34.254Z,46.90
2023-04-21T15:27:02.622Z,45.50
2023-04-21T15:29:30.531Z,46.40
2023-04-21T15:31:58.452Z,45.90
2023-04-21T15:34:26.430Z,45.00
2023-04-21T15:36:54.631Z,46.10
2023-04-21T15:39:23.909Z,45.10
2023-04-21T15:41:53.285Z,45.40
2023-04-21T15:44:21.156Z,45.00
2023-04-21T15:46:49.158Z,45.50
2023-04-21T15:49:17.112Z,45.60
2023-04-21T15:51:45.055Z,44.20
2023-04-21T15:54:12.974Z,45.50
2023-04-21T15:56:42.252Z,44.70
2023-04-21T15:59:10.205Z,46.10
2023-04-21T16:01:38.231Z,45.00
2023-04-21T16:04:06.471Z,45.30
2023-04-21T16:06:34.975Z,46.90
2023-04-21T16:09:03.317Z,46.50
2023-04-21T16:11:31.170Z,46.30
2023-04-21T16:14:01.936Z,46.70
2023-04-21T16:16:29.885Z,47.60
2023-04-21T16:18:57.797Z,47.70
2023-04-21T16:21:25.844Z,47.50
2023-04-21T16:23:53.758Z,48.70
2023-04-21T16:26:22.910Z,47.20
2023-04-21T16:28:54.144Z,47.70
2023-04-21T16:31:23.441Z,48.60
2023-04-21T16:33:52.688Z,48.40
2023-04-21T16:36:21.656Z,48.20
2023-04-21T16:38:49.570Z,49.90
2023-04-21T16:41:20.256Z,50.00
2023-04-21T16:43:48.896Z,49.70
2023-04-21T16:46:16.787Z,50.80
2023-04-21T16:48:46.167Z,51.50
2023-04-21T16:51:14.120Z,51.30
2023-04-21T16:53:42.571Z,51.10
2023-04-21T16:56:10.678Z,50.60
2023-04-21T16:58:39.440Z,51.90
2023-04-21T17:01:08.115Z,52.10
2023-04-21T17:03:37.027Z,51.60
2023-04-21T17:06:10.625Z,50.50
2023-04-21T17:08:38.799Z,51.20
2023-04-21T17:11:06.689Z,51.80
2023-04-21T17:13:38.047Z,52.30
2023-04-21T17:16:06.291Z,52.60
2023-04-21T17:18:34.252Z,51.70
2023-04-21T17:21:02.117Z,52.10
2023-04-21T17:23:31.348Z,53.50
2023-04-21T17:25:59.184Z,53.80
2023-04-21T17:28:27.130Z,53.80
2023-04-21T17:31:07.030Z,53.70
2023-04-21T17:33:41.465Z,54.40
2023-04-21T17:36:09.466Z,54.80
2023-04-21T17:38:38.720Z,55.20
2023-04-21T17:41:07.683Z,55.70
2023-04-21T17:43:35.541Z,55.60
2023-04-21T17:46:03.469Z,55.60
2023-04-21T17:48:31.426Z,56.00
2023-04-21T17:50:59.302Z,56.30
2023-04-21T17:53:27.124Z,56.50
2023-04-21T17:55:56.542Z,55.10
2023-04-21T17:58:24.455Z,54.50
2023-04-21T18:00:52.319Z,54.20
2023-04-21T18:03:20.449Z,42.30
2023-04-21T18:05:48.501Z,39.90
2023-04-21T18:08:16.396Z,40.50
2023-04-21T18:10:44.255Z,39.80
2023-04-21T18:13:13.559Z,41.00
2023-04-21T18:15:41.628Z,40.30
2023-04-21T18:18:09.716Z,41.10
2023-04-21T18:20:38.257Z,40.90
2023-04-21T18:23:06.221Z,41.30
2023-04-21T18:25:41.999Z,41.70
2023-04-21T18:28:12.502Z,41.70
2023-04-21T18:30:42.215Z,42.60
2023-04-21T18:33:11.471Z,43.00
2023-04-21T18:35:39.739Z,42.70
2023-04-21T18:38:10.385Z,43.50
2023-04-21T18:40:38.567Z,44.10
2023-04-21T18:43:06.555Z,44.60
2023-04-21T18:45:34.940Z,45.30
2023-04-21T18:48:04.162Z,45.80
2023-04-21T18:50:32.384Z,46.50
2023-04-21T18:53:00.249Z,46.90
2023-04-21T18:55:28.133Z,37.30
2023-04-21T18:57:55.971Z,33.20
2023-04-21T19:00:23.878Z,30.00
2023-04-21T19:02:51.932Z,28.80
2023-04-21T19:05:21.294Z,28.40
2023-04-21T19:07:49.148Z,27.60
2023-04-21T19:10:17.053Z,24.90
2023-04-21T19:12:44.934Z,25.70
2023-04-21T19:15:13.004Z,25.40
2023-04-21T19:17:41.201Z,25.70
2023-04-21T19:20:09.806Z,20.30
2023-04-21T19:22:39.029Z,20.40
2023-04-21T19:25:08.497Z,17.40
2023-04-21T19:27:36.694Z,12.00
2023-04-21T19:30:04.765Z,8.50
2023-04-21T19:32:32.819Z,3.10
2023-04-21T19:35:00.889Z,1.20
2023-04-21T19:37:28.889Z,1.00
2023-04-21T19:39:58.128Z,1.00
2023-04-21T19:42:26.057Z,1.00
2023-04-21T19:44:54.404Z,1.00
2023-04-21T19:47:22.388Z,1.00
2023-04-21T19:49:50.641Z,1.00
2023-04-21T19:52:18.506Z,1.00
2023-04-21T19:54:46.606Z,1.00
2023-04-21T19:57:15.897Z,1.00
2023-04-21T19:59:43.826Z,1.00
2023-04-21T20:02:11.712Z,1.00
2023-04-21T20:04:39.686Z,1.00
2023-04-21T20:07:07.629Z,1.00
2023-04-21T20:09:35.477Z,1.00
2023-04-21T20:12:03.423Z,1.00
2023-04-21T20:14:32.669Z,1.00
2023-04-21T20:17:00.658Z,1.00
2023-04-21T20:19:31.038Z,1.00
2023-04-21T20:21:58.944Z,1.00
2023-04-21T20:24:26.891Z,1.00
2023-04-21T20:26:54.807Z,1.00
2023-04-21T20:29:22.680Z,1.00
2023-04-21T20:31:52.118Z,1.00
2023-04-21T20:34:20.222Z,1.00
2023-04-21T20:36:48.088Z,1.00
2023-04-21T20:39:18.340Z,1.00
2023-04-21T20:41:46.206Z,1.00
2023-04-21T20:44:14.222Z,1.00
2023-04-21T20:46:42.201Z,1.00
2023-04-21T20:49:11.790Z,1.00
2023-04-21T20:51:41.350Z,1.00
2023-04-21T20:54:09.373Z,1.00
2023-04-21T20:56:37.191Z,1.00
2023-04-21T20:59:05.062Z,1.00
2023-04-21T21:01:36.778Z,1.00
2023-04-21T21:04:05.048Z,1.00
2023-04-21T21:06:34.646Z,1.00
2023-04-21T21:09:02.542Z,1.00
2023-04-21T21:11:30.466Z,1.00
2023-04-21T21:13:58.297Z,1.00
2023-04-21T21:16:26.441Z,1.00
2023-04-21T21:18:54.320Z,1.00
2023-04-21T21:21:22.399Z,1.00
2023-04-21T21:23:51.705Z,1.00
2023-04-21T21:26:19.629Z,1.00
2023-04-21T21:28:47.491Z,1.00
2023-04-21T21:31:15.392Z,1.00
2023-04-21T21:33:43.238Z,1.00
2023-04-21T21:36:11.122Z,1.00
2023-04-21T21:38:39.041Z,1.00
2023-04-21T21:41:10.278Z,1.00
2023-04-21T21:43:38.239Z,1.00
2023-04-21T21:46:06.260Z,1.00
2023-04-21T21:48:34.183Z,1.00
2023-04-21T21:51:02.058Z,1.00
2023-04-21T21:53:29.903Z,1.00
2023-04-21T21:55:57.734Z,2.90
2023-04-21T21:58:27.140Z,10.60
2023-04-21T22:00:55.554Z,7.50
2023-04-21T22:03:23.544Z,1.00
2023-04-21T22:05:52.258Z,2.80
2023-04-21T22:08:20.096Z,2.80
2023-04-21T22:10:48.003Z,11.50
2023-04-21T22:13:15.859Z,17.10
2023-04-21T22:15:45.177Z,14.40
2023-04-21T22:18:13.049Z,2.70
2023-04-21T22:20:40.908Z,8.30
2023-04-21T22:23:08.748Z,2.90
2023-04-21T22:25:36.983Z,5.20
2023-04-21T22:28:04.903Z,10.00
2023-04-21T22:30:32.780Z,8.90
2023-04-21T22:33:02.114Z,4.30
2023-04-21T22:35:30.475Z,7.60
2023-04-21T22:37:58.343Z,1.30
2023-04-21T22:40:26.185Z,7.10
2023-04-21T22:42:54.641Z,9.80
2023-04-21T22:45:22.472Z,16.50
2023-04-21T22:47:50.769Z,1.80
2023-04-21T22:50:20.217Z,1.00
2023-04-21T22:52:48.062Z,1.90
2023-04-21T22:55:15.920Z,11.10
2023-04-21T22:57:43.855Z,19.90
2023-04-21T23:00:11.989Z,22.00
2023-04-21T23:02:40.023Z,11.60
2023-04-21T23:05:08.389Z,3.20
2023-04-21T23:07:37.681Z,4.40
2023-04-21T23:10:05.962Z,20.20
2023-04-21T23:12:33.850Z,17.40
2023-04-21T23:15:01.670Z,13.40
2023-04-21T23:17:29.641Z,26.80
2023-04-21T23:19:57.499Z,32.80
2023-04-21T23:22:26.289Z,20.70
2023-04-21T23:24:55.618Z,19.60
2023-04-21T23:27:23.467Z,23.40
2023-04-21T23:29:51.296Z,22.00
2023-04-21T23:32:19.170Z,13.60
2023-04-21T23:34:47.281Z,14.40
2023-04-21T23:37:15.145Z,16.50
2023-04-21T23:39:43.297Z,22.00
2023-04-21T23:42:12.543Z,18.20
2023-04-21T23:44:40.554Z,19.20
2023-04-21T23:47:08.434Z,19.50
2023-04-21T23:49:36.542Z,18.80
2023-04-21T23:52:04.584Z,25.40
2023-04-21T23:54:32.511Z,29.70
2023-04-21T23:57:01.013Z,33.40
2023-04-21T23:59:30.231Z,35.60
